sensor_id;sensor_type;location;lat;lon;timestamp;P1;durP1;ratioP1;P2;durP2;ratioP2
18259;SDS011;9256;52.236;5.712;2023-06-22T00:00:11;6.82;;;3.55;;
18259;SDS011;9256;52.236;5.712;2023-06-22T00:02:38;6.88;;;3.65;;
18259;SDS011;9256;52.236;5.712;2023-06-22T00:05:05;6.18;;;3.60;;
18259;SDS011;9256;52.236;5.712;2023-06-22T00:07:33;5.70;;;3.53;;
18259;SDS011;9256;52.236;5.712;2023-06-22T00:09:59;8.63;;;3.75;;
18259;SDS011;9256;52.236;5.712;2023-06-22T00:12:28;6.78;;;3.70;;
18259;SDS011;9256;52.236;5.712;2023-06-22T00:14:55;6.47;;;3.63;;
18259;SDS011;9256;52.236;5.712;2023-06-22T00:17:22;6.10;;;3.80;;
18259;SDS011;9256;52.236;5.712;2023-06-22T00:19:48;5.93;;;3.58;;
18259;SDS011;9256;52.236;5.712;2023-06-22T00:22:18;6.25;;;3.50;;
18259;SDS011;9256;52.236;5.712;2023-06-22T00:24:54;5.90;;;3.90;;
18259;SDS011;9256;52.236;5.712;2023-06-22T00:27:21;8.02;;;4.30;;
18259;SDS011;9256;52.236;5.712;2023-06-22T00:29:49;5.72;;;3.28;;
18259;SDS011;9256;52.236;5.712;2023-06-22T00:32:16;6.68;;;4.00;;
18259;SDS011;9256;52.236;5.712;2023-06-22T00:34:43;9.00;;;4.15;;
18259;SDS011;9256;52.236;5.712;2023-06-22T00:37:10;7.25;;;4.00;;
18259;SDS011;9256;52.236;5.712;2023-06-22T00:39:37;7.63;;;4.18;;
18259;SDS011;9256;52.236;5.712;2023-06-22T00:42:04;10.30;;;4.32;;
18259;SDS011;9256;52.236;5.712;2023-06-22T00:44:31;6.97;;;4.13;;
18259;SDS011;9256;52.236;5.712;2023-06-22T00:47:00;9.88;;;4.13;;
18259;SDS011;9256;52.236;5.712;2023-06-22T00:49:27;8.63;;;4.70;;
18259;SDS011;9256;52.236;5.712;2023-06-22T00:51:54;11.27;;;4.78;;
18259;SDS011;9256;52.236;5.712;2023-06-22T00:54:22;9.27;;;4.55;;
18259;SDS011;9256;52.236;5.712;2023-06-22T00:56:49;7.80;;;4.57;;
18259;SDS011;9256;52.236;5.712;2023-06-22T00:59:19;9.65;;;4.60;;
18259;SDS011;9256;52.236;5.712;2023-06-22T01:01:46;8.57;;;4.68;;
18259;SDS011;9256;52.236;5.712;2023-06-22T01:04:15;9.90;;;4.68;;
18259;SDS011;9256;52.236;5.712;2023-06-22T01:06:44;8.30;;;4.78;;
18259;SDS011;9256;52.236;5.712;2023-06-22T01:09:21;9.63;;;5.03;;
18259;SDS011;9256;52.236;5.712;2023-06-22T01:11:54;11.95;;;5.60;;
18259;SDS011;9256;52.236;5.712;2023-06-22T01:14:27;9.25;;;4.70;;
18259;SDS011;9256;52.236;5.712;2023-06-22T01:16:58;8.60;;;4.47;;
18259;SDS011;9256;52.236;5.712;2023-06-22T01:19:34;7.72;;;4.50;;
18259;SDS011;9256;52.236;5.712;2023-06-22T01:22:22;9.55;;;4.90;;
18259;SDS011;9256;52.236;5.712;2023-06-22T01:28:17;8.85;;;4.93;;
18259;SDS011;9256;52.236;5.712;2023-06-22T01:30:56;8.40;;;4.60;;
18259;SDS011;9256;52.236;5.712;2023-06-22T01:33:31;9.32;;;4.97;;
18259;SDS011;9256;52.236;5.712;2023-06-22T01:36:01;8.43;;;4.75;;
18259;SDS011;9256;52.236;5.712;2023-06-22T01:38:29;8.55;;;5.00;;
18259;SDS011;9256;52.236;5.712;2023-06-22T01:40:57;10.25;;;5.35;;
18259;SDS011;9256;52.236;5.712;2023-06-22T01:43:25;8.63;;;5.35;;
18259;SDS011;9256;52.236;5.712;2023-06-22T01:45:55;10.88;;;5.25;;
18259;SDS011;9256;52.236;5.712;2023-06-22T01:48:23;9.27;;;5.15;;
18259;SDS011;9256;52.236;5.712;2023-06-22T01:50:51;11.38;;;5.50;;
18259;SDS011;9256;52.236;5.712;2023-06-22T01:53:20;9.68;;;5.43;;
18259;SDS011;9256;52.236;5.712;2023-06-22T01:55:47;10.85;;;5.20;;
18259;SDS011;9256;52.236;5.712;2023-06-22T01:58:14;10.48;;;5.10;;
18259;SDS011;9256;52.236;5.712;2023-06-22T02:00:43;8.63;;;5.20;;
18259;SDS011;9256;52.236;5.712;2023-06-22T02:03:17;11.88;;;5.80;;
18259;SDS011;9256;52.236;5.712;2023-06-22T02:05:50;9.57;;;5.40;;
18259;SDS011;9256;52.236;5.712;2023-06-22T02:08:22;10.60;;;6.07;;
18259;SDS011;9256;52.236;5.712;2023-06-22T02:10:51;10.07;;;5.82;;
18259;SDS011;9256;52.236;5.712;2023-06-22T02:13:20;11.88;;;6.13;;
18259;SDS011;9256;52.236;5.712;2023-06-22T02:15:47;13.10;;;6.53;;
18259;SDS011;9256;52.236;5.712;2023-06-22T02:18:14;11.48;;;6.05;;
18259;SDS011;9256;52.236;5.712;2023-06-22T02:20:43;11.40;;;6.03;;
18259;SDS011;9256;52.236;5.712;2023-06-22T02:23:10;12.35;;;6.70;;
18259;SDS011;9256;52.236;5.712;2023-06-22T02:25:37;12.00;;;6.63;;
18259;SDS011;9256;52.236;5.712;2023-06-22T02:28:04;13.05;;;6.25;;
18259;SDS011;9256;52.236;5.712;2023-06-22T02:30:31;12.88;;;6.40;;
18259;SDS011;9256;52.236;5.712;2023-06-22T02:32:58;12.48;;;6.88;;
18259;SDS011;9256;52.236;5.712;2023-06-22T02:35:27;12.60;;;6.80;;
18259;SDS011;9256;52.236;5.712;2023-06-22T02:37:56;11.57;;;6.15;;
18259;SDS011;9256;52.236;5.712;2023-06-22T02:40:24;13.35;;;6.60;;
18259;SDS011;9256;52.236;5.712;2023-06-22T02:42:51;12.55;;;6.47;;
18259;SDS011;9256;52.236;5.712;2023-06-22T02:45:18;12.15;;;6.53;;
18259;SDS011;9256;52.236;5.712;2023-06-22T02:47:45;13.93;;;6.85;;
18259;SDS011;9256;52.236;5.712;2023-06-22T02:50:15;18.38;;;7.30;;
18259;SDS011;9256;52.236;5.712;2023-06-22T02:52:43;16.20;;;7.57;;
18259;SDS011;9256;52.236;5.712;2023-06-22T02:55:10;16.55;;;7.95;;
18259;SDS011;9256;52.236;5.712;2023-06-22T02:57:37;13.85;;;7.38;;
18259;SDS011;9256;52.236;5.712;2023-06-22T03:00:10;14.70;;;7.40;;
18259;SDS011;9256;52.236;5.712;2023-06-22T03:02:42;14.52;;;7.50;;
18259;SDS011;9256;52.236;5.712;2023-06-22T03:05:09;13.35;;;7.43;;
18259;SDS011;9256;52.236;5.712;2023-06-22T03:07:38;14.85;;;7.50;;
18259;SDS011;9256;52.236;5.712;2023-06-22T03:10:08;13.20;;;7.28;;
18259;SDS011;9256;52.236;5.712;2023-06-22T03:12:35;15.80;;;7.88;;
18259;SDS011;9256;52.236;5.712;2023-06-22T03:15:03;12.77;;;7.20;;
18259;SDS011;9256;52.236;5.712;2023-06-22T03:17:31;17.02;;;8.70;;
18259;SDS011;9256;52.236;5.712;2023-06-22T03:19:59;16.88;;;8.60;;
18259;SDS011;9256;52.236;5.712;2023-06-22T03:22:26;18.80;;;9.20;;
18259;SDS011;9256;52.236;5.712;2023-06-22T03:24:53;15.70;;;8.55;;
18259;SDS011;9256;52.236;5.712;2023-06-22T03:27:21;17.70;;;8.43;;
18259;SDS011;9256;52.236;5.712;2023-06-22T03:29:48;17.90;;;8.40;;
18259;SDS011;9256;52.236;5.712;2023-06-22T03:32:15;17.15;;;8.95;;
18259;SDS011;9256;52.236;5.712;2023-06-22T03:34:42;18.67;;;9.30;;
18259;SDS011;9256;52.236;5.712;2023-06-22T03:37:12;18.30;;;8.93;;
18259;SDS011;9256;52.236;5.712;2023-06-22T03:39:40;21.48;;;9.75;;
18259;SDS011;9256;52.236;5.712;2023-06-22T03:42:07;21.58;;;11.25;;
18259;SDS011;9256;52.236;5.712;2023-06-22T03:44:35;28.58;;;14.55;;
18259;SDS011;9256;52.236;5.712;2023-06-22T03:47:02;30.48;;;14.25;;
18259;SDS011;9256;52.236;5.712;2023-06-22T03:49:32;36.97;;;18.17;;
18259;SDS011;9256;52.236;5.712;2023-06-22T03:51:59;37.00;;;18.70;;
18259;SDS011;9256;52.236;5.712;2023-06-22T03:54:26;42.47;;;19.52;;
18259;SDS011;9256;52.236;5.712;2023-06-22T03:56:54;45.55;;;20.45;;
18259;SDS011;9256;52.236;5.712;2023-06-22T03:59:21;45.28;;;20.17;;
18259;SDS011;9256;52.236;5.712;2023-06-22T04:01:49;41.20;;;19.27;;
18259;SDS011;9256;52.236;5.712;2023-06-22T04:04:17;42.28;;;19.88;;
18259;SDS011;9256;52.236;5.712;2023-06-22T04:06:44;45.63;;;19.58;;
18259;SDS011;9256;52.236;5.712;2023-06-22T04:09:11;45.88;;;19.75;;
18259;SDS011;9256;52.236;5.712;2023-06-22T04:11:38;41.90;;;19.48;;
18259;SDS011;9256;52.236;5.712;2023-06-22T04:14:05;38.45;;;18.80;;
18259;SDS011;9256;52.236;5.712;2023-06-22T04:16:31;41.72;;;19.77;;
18259;SDS011;9256;52.236;5.712;2023-06-22T04:19:00;47.00;;;23.60;;
18259;SDS011;9256;52.236;5.712;2023-06-22T04:21:27;43.53;;;20.85;;
18259;SDS011;9256;52.236;5.712;2023-06-22T04:23:54;44.58;;;20.42;;
18259;SDS011;9256;52.236;5.712;2023-06-22T04:26:21;45.13;;;21.25;;
18259;SDS011;9256;52.236;5.712;2023-06-22T04:28:48;43.70;;;20.10;;
18259;SDS011;9256;52.236;5.712;2023-06-22T04:31:16;50.38;;;21.63;;
18259;SDS011;9256;52.236;5.712;2023-06-22T04:33:44;42.05;;;20.20;;
18259;SDS011;9256;52.236;5.712;2023-06-22T04:36:12;48.92;;;23.17;;
18259;SDS011;9256;52.236;5.712;2023-06-22T04:38:40;50.78;;;23.65;;
18259;SDS011;9256;52.236;5.712;2023-06-22T04:41:07;48.15;;;22.67;;
18259;SDS011;9256;52.236;5.712;2023-06-22T04:43:48;47.17;;;23.20;;
18259;SDS011;9256;52.236;5.712;2023-06-22T04:46:19;52.20;;;23.88;;
18259;SDS011;9256;52.236;5.712;2023-06-22T04:48:46;53.03;;;24.85;;
18259;SDS011;9256;52.236;5.712;2023-06-22T04:51:14;52.33;;;23.70;;
18259;SDS011;9256;52.236;5.712;2023-06-22T04:53:41;55.13;;;25.20;;
18259;SDS011;9256;52.236;5.712;2023-06-22T04:56:08;55.80;;;25.60;;
18259;SDS011;9256;52.236;5.712;2023-06-22T04:58:35;57.90;;;26.13;;
18259;SDS011;9256;52.236;5.712;2023-06-22T05:01:02;59.70;;;26.80;;
18259;SDS011;9256;52.236;5.712;2023-06-22T05:03:29;60.75;;;28.13;;
18259;SDS011;9256;52.236;5.712;2023-06-22T05:05:56;58.78;;;27.40;;
18259;SDS011;9256;52.236;5.712;2023-06-22T05:08:24;63.85;;;28.08;;
18259;SDS011;9256;52.236;5.712;2023-06-22T05:10:53;62.15;;;27.55;;
18259;SDS011;9256;52.236;5.712;2023-06-22T05:13:20;64.38;;;28.60;;
18259;SDS011;9256;52.236;5.712;2023-06-22T05:15:51;61.50;;;28.13;;
18259;SDS011;9256;52.236;5.712;2023-06-22T05:18:26;66.22;;;27.88;;
18259;SDS011;9256;52.236;5.712;2023-06-22T05:20:54;62.50;;;28.50;;
18259;SDS011;9256;52.236;5.712;2023-06-22T05:23:21;61.60;;;28.38;;
18259;SDS011;9256;52.236;5.712;2023-06-22T05:25:49;65.15;;;28.08;;
18259;SDS011;9256;52.236;5.712;2023-06-22T05:28:17;65.43;;;33.88;;
18259;SDS011;9256;52.236;5.712;2023-06-22T05:30:48;59.28;;;28.23;;
18259;SDS011;9256;52.236;5.712;2023-06-22T05:33:14;60.88;;;29.23;;
18259;SDS011;9256;52.236;5.712;2023-06-22T05:35:41;59.40;;;27.85;;
18259;SDS011;9256;52.236;5.712;2023-06-22T05:38:08;60.88;;;28.63;;
18259;SDS011;9256;52.236;5.712;2023-06-22T05:40:35;57.97;;;27.88;;
18259;SDS011;9256;52.236;5.712;2023-06-22T05:43:03;60.10;;;28.10;;
18259;SDS011;9256;52.236;5.712;2023-06-22T05:45:30;63.08;;;28.83;;
18259;SDS011;9256;52.236;5.712;2023-06-22T05:47:57;57.58;;;28.80;;
18259;SDS011;9256;52.236;5.712;2023-06-22T05:50:24;61.35;;;32.00;;
18259;SDS011;9256;52.236;5.712;2023-06-22T05:52:51;56.85;;;28.75;;
18259;SDS011;9256;52.236;5.712;2023-06-22T05:55:18;62.75;;;29.17;;
18259;SDS011;9256;52.236;5.712;2023-06-22T05:57:45;55.30;;;27.02;;
18259;SDS011;9256;52.236;5.712;2023-06-22T06:00:13;52.90;;;27.65;;
18259;SDS011;9256;52.236;5.712;2023-06-22T06:02:41;50.15;;;25.48;;
18259;SDS011;9256;52.236;5.712;2023-06-22T06:05:09;49.85;;;26.00;;
18259;SDS011;9256;52.236;5.712;2023-06-22T06:07:36;53.17;;;28.80;;
18259;SDS011;9256;52.236;5.712;2023-06-22T06:10:03;46.25;;;25.33;;
18259;SDS011;9256;52.236;5.712;2023-06-22T06:12:31;43.35;;;23.95;;
18259;SDS011;9256;52.236;5.712;2023-06-22T06:14:58;47.28;;;23.60;;
18259;SDS011;9256;52.236;5.712;2023-06-22T06:17:26;48.40;;;23.85;;
18259;SDS011;9256;52.236;5.712;2023-06-22T06:19:53;41.83;;;21.58;;
18259;SDS011;9256;52.236;5.712;2023-06-22T06:22:20;39.78;;;21.15;;
18259;SDS011;9256;52.236;5.712;2023-06-22T06:24:48;41.22;;;21.50;;
18259;SDS011;9256;52.236;5.712;2023-06-22T06:27:15;40.95;;;22.17;;
18259;SDS011;9256;52.236;5.712;2023-06-22T06:29:44;37.50;;;20.15;;
18259;SDS011;9256;52.236;5.712;2023-06-22T06:32:13;36.92;;;19.73;;
18259;SDS011;9256;52.236;5.712;2023-06-22T06:34:41;36.45;;;20.42;;
18259;SDS011;9256;52.236;5.712;2023-06-22T06:37:08;34.78;;;19.05;;
18259;SDS011;9256;52.236;5.712;2023-06-22T06:39:35;36.28;;;20.15;;
18259;SDS011;9256;52.236;5.712;2023-06-22T06:42:03;34.45;;;19.33;;
18259;SDS011;9256;52.236;5.712;2023-06-22T06:44:31;35.65;;;20.35;;
18259;SDS011;9256;52.236;5.712;2023-06-22T06:46:58;35.38;;;19.30;;
18259;SDS011;9256;52.236;5.712;2023-06-22T06:49:24;35.83;;;19.45;;
18259;SDS011;9256;52.236;5.712;2023-06-22T06:51:53;37.15;;;20.88;;
18259;SDS011;9256;52.236;5.712;2023-06-22T06:54:20;33.85;;;18.65;;
18259;SDS011;9256;52.236;5.712;2023-06-22T06:56:47;35.05;;;19.17;;
18259;SDS011;9256;52.236;5.712;2023-06-22T06:59:15;34.20;;;18.35;;
18259;SDS011;9256;52.236;5.712;2023-06-22T07:01:42;33.42;;;18.60;;
18259;SDS011;9256;52.236;5.712;2023-06-22T07:04:09;31.52;;;17.77;;
18259;SDS011;9256;52.236;5.712;2023-06-22T07:06:36;33.17;;;17.83;;
18259;SDS011;9256;52.236;5.712;2023-06-22T07:09:05;30.55;;;19.35;;
18259;SDS011;9256;52.236;5.712;2023-06-22T07:11:32;34.35;;;18.58;;
18259;SDS011;9256;52.236;5.712;2023-06-22T07:14:00;32.92;;;16.83;;
18259;SDS011;9256;52.236;5.712;2023-06-22T07:16:27;28.30;;;16.20;;
18259;SDS011;9256;52.236;5.712;2023-06-22T07:18:56;27.00;;;15.43;;
18259;SDS011;9256;52.236;5.712;2023-06-22T07:21:23;28.02;;;15.88;;
18259;SDS011;9256;52.236;5.712;2023-06-22T07:23:50;31.85;;;16.85;;
18259;SDS011;9256;52.236;5.712;2023-06-22T07:26:18;27.77;;;16.48;;
18259;SDS011;9256;52.236;5.712;2023-06-22T07:28:45;26.98;;;15.63;;
18259;SDS011;9256;52.236;5.712;2023-06-22T07:31:12;27.55;;;15.63;;
18259;SDS011;9256;52.236;5.712;2023-06-22T07:33:38;24.98;;;14.85;;
18259;SDS011;9256;52.236;5.712;2023-06-22T07:36:05;24.35;;;14.75;;
18259;SDS011;9256;52.236;5.712;2023-06-22T07:38:33;26.70;;;14.50;;
18259;SDS011;9256;52.236;5.712;2023-06-22T07:41:00;28.60;;;14.27;;
18259;SDS011;9256;52.236;5.712;2023-06-22T07:43:32;24.23;;;13.73;;
18259;SDS011;9256;52.236;5.712;2023-06-22T07:45:59;25.48;;;16.10;;
18259;SDS011;9256;52.236;5.712;2023-06-22T07:48:26;25.33;;;14.82;;
18259;SDS011;9256;52.236;5.712;2023-06-22T07:50:53;23.45;;;12.73;;
18259;SDS011;9256;52.236;5.712;2023-06-22T07:53:20;22.85;;;13.15;;
18259;SDS011;9256;52.236;5.712;2023-06-22T07:55:48;24.05;;;12.77;;
18259;SDS011;9256;52.236;5.712;2023-06-22T07:58:15;24.42;;;14.65;;
18259;SDS011;9256;52.236;5.712;2023-06-22T08:00:45;20.90;;;12.73;;
18259;SDS011;9256;52.236;5.712;2023-06-22T08:03:13;22.13;;;12.48;;
18259;SDS011;9256;52.236;5.712;2023-06-22T08:05:40;22.00;;;13.15;;
18259;SDS011;9256;52.236;5.712;2023-06-22T08:08:07;21.30;;;11.98;;
18259;SDS011;9256;52.236;5.712;2023-06-22T08:10:34;20.20;;;12.60;;
18259;SDS011;9256;52.236;5.712;2023-06-22T08:13:01;21.52;;;11.95;;
18259;SDS011;9256;52.236;5.712;2023-06-22T08:15:28;20.45;;;11.70;;
18259;SDS011;9256;52.236;5.712;2023-06-22T08:17:56;23.70;;;11.40;;
18259;SDS011;9256;52.236;5.712;2023-06-22T08:20:25;20.85;;;11.90;;
18259;SDS011;9256;52.236;5.712;2023-06-22T08:22:52;17.73;;;10.70;;
18259;SDS011;9256;52.236;5.712;2023-06-22T08:25:20;16.50;;;10.18;;
18259;SDS011;9256;52.236;5.712;2023-06-22T08:27:47;23.05;;;11.20;;
18259;SDS011;9256;52.236;5.712;2023-06-22T08:30:14;17.65;;;10.00;;
18259;SDS011;9256;52.236;5.712;2023-06-22T08:32:42;19.35;;;10.18;;
18259;SDS011;9256;52.236;5.712;2023-06-22T08:35:10;18.00;;;10.90;;
18259;SDS011;9256;52.236;5.712;2023-06-22T08:37:37;20.15;;;11.48;;
18259;SDS011;9256;52.236;5.712;2023-06-22T08:40:05;18.92;;;10.05;;
18259;SDS011;9256;52.236;5.712;2023-06-22T08:42:33;16.25;;;9.88;;
18259;SDS011;9256;52.236;5.712;2023-06-22T08:45:00;16.65;;;10.60;;
18259;SDS011;9256;52.236;5.712;2023-06-22T08:47:27;17.10;;;9.63;;
18259;SDS011;9256;52.236;5.712;2023-06-22T08:49:54;17.05;;;9.60;;
18259;SDS011;9256;52.236;5.712;2023-06-22T08:52:22;15.18;;;9.32;;
18259;SDS011;9256;52.236;5.712;2023-06-22T08:54:50;16.20;;;9.65;;
18259;SDS011;9256;52.236;5.712;2023-06-22T08:57:17;17.60;;;9.18;;
18259;SDS011;9256;52.236;5.712;2023-06-22T08:59:44;15.45;;;9.02;;
18259;SDS011;9256;52.236;5.712;2023-06-22T09:02:11;16.63;;;10.77;;
18259;SDS011;9256;52.236;5.712;2023-06-22T09:04:37;17.27;;;9.80;;
18259;SDS011;9256;52.236;5.712;2023-06-22T09:07:05;17.13;;;8.88;;
18259;SDS011;9256;52.236;5.712;2023-06-22T09:09:33;15.10;;;9.30;;
18259;SDS011;9256;52.236;5.712;2023-06-22T09:12:00;15.88;;;9.27;;
18259;SDS011;9256;52.236;5.712;2023-06-22T09:14:27;13.77;;;8.43;;
18259;SDS011;9256;52.236;5.712;2023-06-22T09:16:54;15.18;;;7.75;;
18259;SDS011;9256;52.236;5.712;2023-06-22T09:19:21;15.23;;;7.97;;
18259;SDS011;9256;52.236;5.712;2023-06-22T09:21:48;14.98;;;8.05;;
18259;SDS011;9256;52.236;5.712;2023-06-22T09:24:14;14.50;;;8.10;;
18259;SDS011;9256;52.236;5.712;2023-06-22T09:26:43;17.60;;;10.35;;
18259;SDS011;9256;52.236;5.712;2023-06-22T09:29:10;13.88;;;9.10;;
18259;SDS011;9256;52.236;5.712;2023-06-22T09:31:37;16.35;;;9.30;;
18259;SDS011;9256;52.236;5.712;2023-06-22T09:34:04;14.98;;;8.73;;
18259;SDS011;9256;52.236;5.712;2023-06-22T09:36:31;14.32;;;8.27;;
18259;SDS011;9256;52.236;5.712;2023-06-22T09:38:57;21.67;;;10.43;;
18259;SDS011;9256;52.236;5.712;2023-06-22T09:41:30;14.00;;;8.20;;
18259;SDS011;9256;52.236;5.712;2023-06-22T09:43:59;12.95;;;8.15;;
18259;SDS011;9256;52.236;5.712;2023-06-22T09:46:26;14.77;;;8.50;;
18259;SDS011;9256;52.236;5.712;2023-06-22T09:48:53;14.02;;;8.55;;
18259;SDS011;9256;52.236;5.712;2023-06-22T09:51:20;14.65;;;8.82;;
18259;SDS011;9256;52.236;5.712;2023-06-22T09:53:48;16.83;;;8.93;;
18259;SDS011;9256;52.236;5.712;2023-06-22T09:56:15;13.13;;;8.35;;
18259;SDS011;9256;52.236;5.712;2023-06-22T09:58:43;12.73;;;7.78;;
18259;SDS011;9256;52.236;5.712;2023-06-22T10:01:12;13.55;;;7.47;;
18259;SDS011;9256;52.236;5.712;2023-06-22T10:03:40;12.20;;;7.40;;
18259;SDS011;9256;52.236;5.712;2023-06-22T10:06:07;11.95;;;6.90;;
18259;SDS011;9256;52.236;5.712;2023-06-22T10:08:34;15.93;;;9.10;;
18259;SDS011;9256;52.236;5.712;2023-06-22T10:11:03;15.10;;;7.47;;
18259;SDS011;9256;52.236;5.712;2023-06-22T10:13:30;14.15;;;7.70;;
18259;SDS011;9256;52.236;5.712;2023-06-22T10:15:57;12.30;;;7.93;;
18259;SDS011;9256;52.236;5.712;2023-06-22T10:18:25;13.18;;;8.20;;
18259;SDS011;9256;52.236;5.712;2023-06-22T10:20:52;17.00;;;7.60;;
18259;SDS011;9256;52.236;5.712;2023-06-22T10:23:19;12.05;;;6.35;;
18259;SDS011;9256;52.236;5.712;2023-06-22T10:25:46;13.82;;;7.70;;
18259;SDS011;9256;52.236;5.712;2023-06-22T10:28:13;14.40;;;8.47;;
18259;SDS011;9256;52.236;5.712;2023-06-22T10:30:40;14.82;;;7.70;;
18259;SDS011;9256;52.236;5.712;2023-06-22T10:33:07;11.55;;;6.72;;
18259;SDS011;9256;52.236;5.712;2023-06-22T10:35:36;14.25;;;7.40;;
18259;SDS011;9256;52.236;5.712;2023-06-22T10:38:03;11.63;;;6.60;;
18259;SDS011;9256;52.236;5.712;2023-06-22T10:40:31;9.80;;;6.03;;
18259;SDS011;9256;52.236;5.712;2023-06-22T10:42:58;12.73;;;6.13;;
18259;SDS011;9256;52.236;5.712;2023-06-22T10:45:25;9.13;;;5.70;;
18259;SDS011;9256;52.236;5.712;2023-06-22T10:47:52;9.70;;;5.70;;
18259;SDS011;9256;52.236;5.712;2023-06-22T10:50:19;9.73;;;6.13;;
18259;SDS011;9256;52.236;5.712;2023-06-22T10:52:50;10.35;;;5.97;;
18259;SDS011;9256;52.236;5.712;2023-06-22T10:55:17;11.77;;;5.82;;
18259;SDS011;9256;52.236;5.712;2023-06-22T10:57:44;12.10;;;6.93;;
18259;SDS011;9256;52.236;5.712;2023-06-22T11:00:13;9.95;;;6.07;;
18259;SDS011;9256;52.236;5.712;2023-06-22T11:02:40;9.80;;;6.45;;
18259;SDS011;9256;52.236;5.712;2023-06-22T11:05:08;11.93;;;6.82;;
18259;SDS011;9256;52.236;5.712;2023-06-22T11:07:35;12.55;;;7.63;;
18259;SDS011;9256;52.236;5.712;2023-06-22T11:10:04;11.65;;;7.90;;
18259;SDS011;9256;52.236;5.712;2023-06-22T11:12:32;12.05;;;7.68;;
18259;SDS011;9256;52.236;5.712;2023-06-22T11:14:59;16.23;;;7.45;;
18259;SDS011;9256;52.236;5.712;2023-06-22T11:17:26;12.77;;;7.43;;
18259;SDS011;9256;52.236;5.712;2023-06-22T11:19:53;12.65;;;6.70;;
18259;SDS011;9256;52.236;5.712;2023-06-22T11:22:19;14.98;;;8.13;;
18259;SDS011;9256;52.236;5.712;2023-06-22T11:24:46;13.07;;;7.40;;
18259;SDS011;9256;52.236;5.712;2023-06-22T11:27:15;15.20;;;8.10;;
18259;SDS011;9256;52.236;5.712;2023-06-22T11:29:42;14.25;;;8.65;;
18259;SDS011;9256;52.236;5.712;2023-06-22T11:32:09;15.77;;;9.05;;
18259;SDS011;9256;52.236;5.712;2023-06-22T11:34:36;13.98;;;8.60;;
18259;SDS011;9256;52.236;5.712;2023-06-22T11:37:02;16.38;;;8.90;;
18259;SDS011;9256;52.236;5.712;2023-06-22T11:39:30;15.85;;;9.40;;
18259;SDS011;9256;52.236;5.712;2023-06-22T11:41:57;17.35;;;9.93;;
18259;SDS011;9256;52.236;5.712;2023-06-22T11:44:25;17.58;;;10.10;;
18259;SDS011;9256;52.236;5.712;2023-06-22T11:46:52;16.67;;;10.07;;
18259;SDS011;9256;52.236;5.712;2023-06-22T11:49:19;15.23;;;8.68;;
18259;SDS011;9256;52.236;5.712;2023-06-22T11:51:46;16.50;;;10.80;;
18259;SDS011;9256;52.236;5.712;2023-06-22T11:54:13;16.02;;;9.77;;
18259;SDS011;9256;52.236;5.712;2023-06-22T11:56:40;17.65;;;11.23;;
18259;SDS011;9256;52.236;5.712;2023-06-22T11:59:06;18.27;;;11.18;;
18259;SDS011;9256;52.236;5.712;2023-06-22T12:01:35;17.00;;;10.45;;
18259;SDS011;9256;52.236;5.712;2023-06-22T12:04:02;16.02;;;10.20;;
18259;SDS011;9256;52.236;5.712;2023-06-22T12:06:30;18.98;;;12.23;;
18259;SDS011;9256;52.236;5.712;2023-06-22T12:08:58;19.35;;;11.57;;
18259;SDS011;9256;52.236;5.712;2023-06-22T12:11:25;16.70;;;9.98;;
18259;SDS011;9256;52.236;5.712;2023-06-22T12:13:52;17.38;;;10.00;;
18259;SDS011;9256;52.236;5.712;2023-06-22T12:16:18;15.25;;;9.88;;
18259;SDS011;9256;52.236;5.712;2023-06-22T12:18:48;19.30;;;9.90;;
18259;SDS011;9256;52.236;5.712;2023-06-22T12:21:15;19.67;;;10.00;;
18259;SDS011;9256;52.236;5.712;2023-06-22T12:23:42;16.65;;;9.20;;
18259;SDS011;9256;52.236;5.712;2023-06-22T12:26:08;12.95;;;8.30;;
18259;SDS011;9256;52.236;5.712;2023-06-22T12:28:35;14.43;;;8.38;;
18259;SDS011;9256;52.236;5.712;2023-06-22T12:31:02;15.30;;;7.82;;
18259;SDS011;9256;52.236;5.712;2023-06-22T12:33:29;16.33;;;8.45;;
18259;SDS011;9256;52.236;5.712;2023-06-22T12:35:58;11.85;;;7.45;;
18259;SDS011;9256;52.236;5.712;2023-06-22T12:38:24;11.68;;;7.13;;
18259;SDS011;9256;52.236;5.712;2023-06-22T12:40:51;12.52;;;7.63;;
18259;SDS011;9256;52.236;5.712;2023-06-22T12:43:18;14.40;;;7.85;;
18259;SDS011;9256;52.236;5.712;2023-06-22T12:45:45;14.90;;;7.80;;
18259;SDS011;9256;52.236;5.712;2023-06-22T12:48:12;15.00;;;7.90;;
18259;SDS011;9256;52.236;5.712;2023-06-22T12:50:39;12.18;;;7.78;;
18259;SDS011;9256;52.236;5.712;2023-06-22T12:53:07;14.32;;;7.90;;
18259;SDS011;9256;52.236;5.712;2023-06-22T12:55:34;15.43;;;8.25;;
18259;SDS011;9256;52.236;5.712;2023-06-22T12:58:01;12.32;;;7.25;;
18259;SDS011;9256;52.236;5.712;2023-06-22T13:00:28;12.88;;;7.18;;
18259;SDS011;9256;52.236;5.712;2023-06-22T13:02:55;11.32;;;6.65;;
18259;SDS011;9256;52.236;5.712;2023-06-22T13:05:21;13.40;;;7.15;;
18259;SDS011;9256;52.236;5.712;2023-06-22T13:07:48;11.55;;;6.68;;
18259;SDS011;9256;52.236;5.712;2023-06-22T13:10:17;12.15;;;6.90;;
18259;SDS011;9256;52.236;5.712;2023-06-22T13:12:43;11.80;;;7.82;;
18259;SDS011;9256;52.236;5.712;2023-06-22T13:15:10;14.43;;;8.50;;
18259;SDS011;9256;52.236;5.712;2023-06-22T13:17:37;15.45;;;7.88;;
18259;SDS011;9256;52.236;5.712;2023-06-22T13:20:05;11.80;;;7.55;;
18259;SDS011;9256;52.236;5.712;2023-06-22T13:22:33;15.95;;;8.57;;
18259;SDS011;9256;52.236;5.712;2023-06-22T13:25:05;13.50;;;8.48;;
18259;SDS011;9256;52.236;5.712;2023-06-22T13:27:34;17.60;;;8.68;;
18259;SDS011;9256;52.236;5.712;2023-06-22T13:30:01;14.82;;;8.32;;
18259;SDS011;9256;52.236;5.712;2023-06-22T13:32:28;15.55;;;9.52;;
18259;SDS011;9256;52.236;5.712;2023-06-22T13:34:55;15.55;;;8.77;;
18259;SDS011;9256;52.236;5.712;2023-06-22T13:37:22;15.40;;;10.05;;
18259;SDS011;9256;52.236;5.712;2023-06-22T13:39:49;20.02;;;11.25;;
18259;SDS011;9256;52.236;5.712;2023-06-22T13:42:16;17.70;;;10.27;;
18259;SDS011;9256;52.236;5.712;2023-06-22T13:44:44;27.10;;;15.23;;
18259;SDS011;9256;52.236;5.712;2023-06-22T13:47:11;28.10;;;15.23;;
18259;SDS011;9256;52.236;5.712;2023-06-22T13:49:38;27.55;;;14.90;;
18259;SDS011;9256;52.236;5.712;2023-06-22T13:52:05;41.90;;;22.75;;
18259;SDS011;9256;52.236;5.712;2023-06-22T13:54:35;35.10;;;18.95;;
18259;SDS011;9256;52.236;5.712;2023-06-22T13:57:02;27.52;;;16.30;;
18259;SDS011;9256;52.236;5.712;2023-06-22T13:59:29;21.63;;;12.85;;
18259;SDS011;9256;52.236;5.712;2023-06-22T14:01:57;19.23;;;12.10;;
18259;SDS011;9256;52.236;5.712;2023-06-22T14:04:24;19.02;;;11.90;;
18259;SDS011;9256;52.236;5.712;2023-06-22T14:06:51;18.77;;;10.80;;
18259;SDS011;9256;52.236;5.712;2023-06-22T14:09:18;18.67;;;10.95;;
18259;SDS011;9256;52.236;5.712;2023-06-22T14:11:45;17.23;;;10.90;;
18259;SDS011;9256;52.236;5.712;2023-06-22T14:14:12;14.65;;;9.52;;
18259;SDS011;9256;52.236;5.712;2023-06-22T14:16:39;15.80;;;10.20;;
18259;SDS011;9256;52.236;5.712;2023-06-22T14:19:07;15.93;;;9.95;;
18259;SDS011;9256;52.236;5.712;2023-06-22T14:21:34;14.82;;;9.13;;
18259;SDS011;9256;52.236;5.712;2023-06-22T14:24:01;12.98;;;8.45;;
18259;SDS011;9256;52.236;5.712;2023-06-22T14:26:28;12.65;;;8.18;;
18259;SDS011;9256;52.236;5.712;2023-06-22T14:28:54;13.88;;;8.20;;
18259;SDS011;9256;52.236;5.712;2023-06-22T14:31:21;15.52;;;9.43;;
18259;SDS011;9256;52.236;5.712;2023-06-22T14:33:49;14.95;;;9.55;;
18259;SDS011;9256;52.236;5.712;2023-06-22T14:36:17;15.82;;;10.48;;
18259;SDS011;9256;52.236;5.712;2023-06-22T14:38:44;17.88;;;11.05;;
18259;SDS011;9256;52.236;5.712;2023-06-22T14:41:12;15.77;;;10.32;;
18259;SDS011;9256;52.236;5.712;2023-06-22T14:43:43;16.60;;;10.85;;
18259;SDS011;9256;52.236;5.712;2023-06-22T14:46:11;16.58;;;10.30;;
18259;SDS011;9256;52.236;5.712;2023-06-22T14:48:38;16.60;;;10.02;;